Time;durP1;ratioP1;P1;durP2;ratioP2;P2;SDS_P1;SDS_P2;PMS_P1;PMS_P2;Temp;Humidity;BMP_temperature;BMP_pressure;BME280_temperature;BME280_humidity;BME280_pressure;Samples;Min_cycle;Max_cycle;Signal;HPM_P1;HPM_P2
2022/12/06 00:00:55;;;;;;;2.67;2.47;;;;;;;3.98;100.00;100359.16;4989691;28;20316;-67
2022/12/06 00:03:21;;;;;;;2.50;2.30;;;;;;;4.00;100.00;100357.41;5004519;28;20211;-66
2022/12/06 00:05:46;;;;;;;2.43;2.23;;;;;;;3.99;100.00;100357.44;5013663;28;20238;-67
2022/12/06 00:08:12;;;;;;;2.50;2.30;;;;;;;3.96;100.00;100355.00;5013064;28;20702;-67
2022/12/06 00:10:37;;;;;;;2.70;2.50;;;;;;;3.96;100.00;100349.91;5007177;28;20709;-67
2022/12/06 00:13:04;;;;;;;3.40;3.10;;;;;;;4.07;100.00;100350.47;5028855;28;20179;-67
2022/12/06 00:15:33;;;;;;;3.60;2.60;;;;;;;4.07;100.00;100349.63;5005323;28;20316;-67
2022/12/06 00:17:59;;;;;;;2.60;2.40;;;;;;;3.93;100.00;100340.63;5011690;28;20297;-67
2022/12/06 00:20:24;;;;;;;3.07;2.87;;;;;;;4.12;100.00;100346.13;5005906;28;20330;-67
2022/12/06 00:22:50;;;;;;;3.07;2.77;;;;;;;3.95;100.00;100343.94;5025950;28;20182;-67
2022/12/06 00:25:15;;;;;;;2.93;2.63;;;;;;;4.03;100.00;100342.06;5012364;28;20206;-67
2022/12/06 00:27:41;;;;;;;3.03;2.73;;;;;;;4.06;100.00;100342.84;5012885;28;20183;-67
2022/12/06 00:30:10;;;;;;;4.73;2.77;;;;;;;4.04;100.00;100342.91;5007914;28;20249;-66
2022/12/06 00:32:35;;;;;;;3.30;3.00;;;;;;;3.94;100.00;100344.81;4985452;28;20261;-67
2022/12/06 00:35:07;;;;;;;3.70;3.40;;;;;;;3.96;100.00;100344.81;5013208;28;20533;-67
2022/12/06 00:37:32;;;;;;;3.00;2.80;;;;;;;3.92;100.00;100341.50;5011646;28;20183;-66
2022/12/06 00:39:59;;;;;;;3.23;2.93;;;;;;;4.00;100.00;100337.03;5013314;28;20261;-67
2022/12/06 00:42:27;;;;;;;2.67;2.47;;;;;;;3.91;100.00;100329.63;5018073;28;20666;-66
2022/12/06 00:44:53;;;;;;;2.70;2.50;;;;;;;3.87;100.00;100339.03;5027996;28;20194;-66
2022/12/06 00:47:18;;;;;;;3.10;2.80;;;;;;;3.84;100.00;100336.56;5027869;28;20234;-66
2022/12/06 00:49:43;;;;;;;2.60;2.40;;;;;;;3.81;100.00;100331.56;5013055;28;20192;-66
2022/12/06 00:52:09;;;;;;;2.97;2.57;;;;;;;3.84;100.00;100333.19;5017657;28;20236;-66
2022/12/06 00:54:34;;;;;;;2.83;2.63;;;;;;;3.93;100.00;100340.63;5020339;28;20194;-66
2022/12/06 00:57:02;;;;;;;3.07;2.70;;;;;;;3.90;100.00;100345.78;5007262;28;20261;-66
2022/12/06 00:59:28;;;;;;;2.77;2.57;;;;;;;3.86;100.00;100345.00;5008911;28;20193;-66
2022/12/06 01:01:53;;;;;;;2.70;2.50;;;;;;;3.76;100.00;100347.78;5016923;28;20304;-65
2022/12/06 01:04:18;;;;;;;2.63;2.43;;;;;;;3.88;100.00;100338.19;5005504;28;20242;-66
2022/12/06 01:06:49;;;;;;;3.27;2.70;;;;;;;3.91;100.00;100346.59;5011920;28;20210;-66
2022/12/06 01:09:15;;;;;;;3.17;2.87;;;;;;;3.97;100.00;100346.44;5010583;28;20310;-66
2022/12/06 01:11:46;;;;;;;2.60;2.40;;;;;;;3.99;100.00;100348.09;5014859;28;20317;-66
2022/12/06 01:14:11;;;;;;;2.73;2.53;;;;;;;4.04;100.00;100343.75;4979408;28;20196;-66
2022/12/06 01:16:37;;;;;;;2.30;2.10;;;;;;;4.07;100.00;100345.38;5012433;28;20197;-66
2022/12/06 01:19:05;;;;;;;4.80;2.90;;;;;;;4.07;100.00;100350.47;5012783;28;20186;-66
2022/12/06 01:21:32;;;;;;;2.60;2.40;;;;;;;4.03;100.00;100346.31;5016601;28;20238;-66
2022/12/06 01:23:58;;;;;;;2.97;2.70;;;;;;;4.01;100.00;100343.00;5019762;28;20202;-65
2022/12/06 01:26:27;;;;;;;5.67;2.40;;;;;;;3.79;100.00;100342.63;5011100;28;20236;-66
2022/12/06 01:28:53;;;;;;;3.90;2.80;;;;;;;3.74;100.00;100354.63;5026973;28;20244;-66
2022/12/06 01:31:21;;;;;;;2.57;2.37;;;;;;;3.74;100.00;100352.09;5011640;28;20303;-66
2022/12/06 01:33:50;;;;;;;2.63;2.43;;;;;;;3.79;100.00;100358.72;5018005;28;20189;-66
2022/12/06 01:36:26;;;;;;;2.87;2.57;;;;;;;3.68;100.00;100356.44;5009992;28;20333;-66
2022/12/06 01:39:05;;;;;;;2.63;2.40;;;;;;;3.51;100.00;100351.72;5026557;28;20191;-65
2022/12/06 01:41:36;;;;;;;2.93;2.73;;;;;;;3.54;100.00;100345.72;5020461;28;20361;-65
2022/12/06 01:44:36;;;;;;;2.63;2.43;;;;;;;3.64;100.00;100344.66;5010878;28;20202;-65
2022/12/06 01:47:02;;;;;;;3.13;2.50;;;;;;;3.48;100.00;100348.41;5010685;28;20183;-65
2022/12/06 01:49:33;;;;;;;2.70;2.50;;;;;;;3.66;100.00;100344.59;5027205;28;20696;-65
2022/12/06 01:52:03;;;;;;;2.67;2.47;;;;;;;3.80;100.00;100347.69;5019836;28;20222;-65
2022/12/06 01:54:29;;;;;;;3.10;2.80;;;;;;;3.90;100.00;100344.94;5005136;28;20199;-65
2022/12/06 01:56:56;;;;;;;2.53;2.33;;;;;;;3.89;100.00;100344.09;5004162;28;20487;-65
2022/12/06 01:59:30;;;;;;;3.10;2.57;;;;;;;3.84;100.00;100345.91;5027475;28;20225;-66
2022/12/06 02:02:00;;;;;;;2.40;2.20;;;;;;;3.96;100.00;100347.34;5019313;28;20225;-65
2022/12/06 02:04:28;;;;;;;2.97;2.77;;;;;;;3.77;100.00;100335.06;5011931;28;20214;-65
2022/12/06 02:07:08;;;;;;;4.10;2.40;;;;;;;3.71;100.00;100338.56;5010733;28;20178;-65
2022/12/06 02:09:36;;;;;;;3.60;2.57;;;;;;;3.65;100.00;100332.78;5010538;28;21046;-66
2022/12/06 02:12:01;;;;;;;3.47;2.60;;;;;;;3.71;100.00;100335.19;5016127;28;20444;-65
2022/12/06 02:14:41;;;;;;;2.87;2.57;;;;;;;3.69;100.00;100334.38;4995663;28;20191;-65
2022/12/06 02:17:25;;;;;;;2.90;2.70;;;;;;;3.72;100.00;100331.75;5006769;28;20187;-65
2022/12/06 02:20:13;;;;;;;2.70;2.50;;;;;;;3.75;100.00;100329.16;5008268;28;20186;-65
2022/12/06 02:23:11;;;;;;;5.27;2.30;;;;;;;3.88;100.00;100328.00;4999873;28;20228;-65
2022/12/06 02:25:54;;;;;;;2.70;2.47;;;;;;;3.91;100.00;100323.69;5000280;28;20210;-66
2022/12/06 02:28:30;;;;;;;2.70;2.50;;;;;;;3.71;100.00;100322.47;5011277;28;20236;-65
2022/12/06 02:30:58;;;;;;;3.23;2.93;;;;;;;3.68;100.00;100319.97;5007667;28;20233;-65
2022/12/06 02:33:34;;;;;;;3.47;2.70;;;;;;;3.74;100.00;100322.38;5010364;28;20179;-65
2022/12/06 02:36:11;;;;;;;3.17;2.87;;;;;;;3.81;100.00;100318.00;5026854;28;20243;-66
2022/12/06 02:38:58;;;;;;;2.83;2.50;;;;;;;3.81;100.00;100318.00;5011284;28;20175;-66
2022/12/06 02:41:34;;;;;;;3.17;2.87;;;;;;;3.92;100.00;100322.81;5018787;28;20233;-66
2022/12/06 02:44:08;;;;;;;2.83;2.63;;;;;;;3.96;100.00;100315.09;5015342;28;20213;-66
2022/12/06 02:46:36;;;;;;;3.00;2.70;;;;;;;4.02;100.00;100320.03;5026265;28;20451;-67
2022/12/06 02:49:05;;;;;;;2.70;2.50;;;;;;;3.96;100.00;100319.34;5028397;28;20187;-67
2022/12/06 02:51:33;;;;;;;3.47;3.07;;;;;;;3.89;100.00;100321.19;5009271;28;20264;-66
2022/12/06 02:54:06;;;;;;;3.77;3.33;;;;;;;3.88;100.00;100314.41;5015728;28;20496;-66
2022/12/06 02:56:34;;;;;;;3.00;2.73;;;;;;;3.94;100.00;100318.53;5014724;28;20723;-66
2022/12/06 02:59:01;;;;;;;3.50;3.20;;;;;;;3.96;100.00;100311.72;5029147;28;20281;-67
2022/12/06 03:01:36;;;;;;;2.70;2.50;;;;;;;4.00;100.00;100313.31;5010703;28;20230;-67
2022/12/06 03:04:13;;;;;;;2.93;2.73;;;;;;;4.09;100.00;100319.88;5023934;28;20276;-66
2022/12/06 03:06:39;;;;;;;3.63;3.33;;;;;;;3.99;100.00;100316.72;5015276;28;20232;-67
2022/12/06 03:09:29;;;;;;;3.37;3.07;;;;;;;3.87;100.00;100315.31;5013116;28;20716;-66
2022/12/06 03:12:03;;;;;;;3.07;2.77;;;;;;;3.92;100.00;100310.09;5018587;28;20237;-67
2022/12/06 03:14:38;;;;;;;3.27;2.53;;;;;;;3.88;100.00;100315.28;5013491;28;20630;-66
2022/12/06 03:17:13;;;;;;;3.20;2.90;;;;;;;3.99;100.00;100307.38;5012876;28;20304;-66
2022/12/06 03:19:41;;;;;;;2.83;2.63;;;;;;;3.90;100.00;100315.22;5015001;28;20183;-66
2022/12/06 03:22:22;;;;;;;3.27;2.97;;;;;;;3.85;100.00;100310.25;5022853;28;20648;-66
2022/12/06 03:24:55;;;;;;;3.80;3.50;;;;;;;3.90;100.00;100302.50;5029848;28;20190;-66
2022/12/06 03:27:26;;;;;;;3.43;3.10;;;;;;;3.82;100.00;100305.25;5014194;28;20210;-66
2022/12/06 03:30:00;;;;;;;3.50;2.57;;;;;;;3.86;100.00;100313.63;5013758;28;20174;-67
2022/12/06 03:32:31;;;;;;;3.20;2.90;;;;;;;3.81;100.00;100311.19;5018897;28;20644;-66
2022/12/06 03:35:04;;;;;;;3.40;3.10;;;;;;;3.77;100.00;100309.59;5009687;28;20262;-66
2022/12/06 03:37:36;;;;;;;4.93;3.10;;;;;;;3.67;100.00;100306.44;5023929;28;20178;-66
2022/12/06 03:40:30;;;;;;;4.77;3.10;;;;;;;3.63;100.00;100301.44;5010171;28;20237;-66
2022/12/06 03:42:57;;;;;;;3.13;2.93;;;;;;;3.53;100.00;100293.16;5009779;28;20638;-67
2022/12/06 03:45:45;;;;;;;3.00;2.60;;;;;;;3.49;100.00;100302.56;5014312;28;20198;-66
2022/12/06 03:48:28;;;;;;;3.87;3.10;;;;;;;3.70;100.00;100293.63;5011691;28;20225;-67
2022/12/06 03:51:03;;;;;;;2.77;2.57;;;;;;;3.69;100.00;100296.22;5002908;28;20580;-66
2022/12/06 03:53:28;;;;;;;2.93;2.70;;;;;;;3.69;100.00;100298.75;5017295;28;20174;-67
2022/12/06 03:56:00;;;;;;;3.27;2.97;;;;;;;3.64;100.00;100303.13;5002902;28;21034;-67
2022/12/06 03:58:26;;;;;;;3.00;2.80;;;;;;;3.78;100.00;100295.97;5013670;28;20179;-66
2022/12/06 04:01:03;;;;;;;3.10;2.50;;;;;;;3.71;100.00;100289.38;4973355;28;20223;-66
2022/12/06 04:03:35;;;;;;;3.13;2.83;;;;;;;3.66;100.00;100301.34;5011452;28;20261;-66
2022/12/06 04:06:08;;;;;;;2.53;2.33;;;;;;;3.75;100.00;100298.63;5013886;28;20662;-67
2022/12/06 04:08:34;;;;;;;4.00;2.70;;;;;;;3.77;100.00;100293.47;5011804;28;20245;-67
2022/12/06 04:10:59;;;;;;;2.97;2.63;;;;;;;3.73;100.00;100297.81;5010297;28;20716;-66
2022/12/06 04:13:31;;;;;;;3.20;2.90;;;;;;;3.76;100.00;100281.63;5021847;28;20186;-67
2022/12/06 04:15:59;;;;;;;2.83;2.63;;;;;;;3.78;100.00;100285.81;5021878;28;20233;-67
2022/12/06 04:18:25;;;;;;;3.10;2.80;;;;;;;3.77;100.00;100281.63;5020654;28;20680;-67
2022/12/06 04:23:55;;;;;;;2.83;2.63;;;;;;;3.70;100.00;100278.34;5020234;28;20617;-67
2022/12/06 04:26:39;;;;;;;3.50;3.20;;;;;;;3.79;100.00;100274.75;5008314;28;20183;-67
2022/12/06 04:40:11;;;;;;;4.33;3.27;;;;;;;3.61;100.00;100267.56;5003443;28;20665;-67
2022/12/06 04:45:38;;;;;;;4.37;3.20;;;;;;;3.64;100.00;100270.88;5012842;28;20214;-66
2022/12/06 04:48:04;;;;;;;4.03;3.57;;;;;;;3.63;100.00;100266.66;5001370;28;20214;-67
2022/12/06 04:50:29;;;;;;;3.73;3.43;;;;;;;3.60;100.00;100268.41;5019693;28;20631;-66
2022/12/06 04:52:59;;;;;;;4.07;3.67;;;;;;;3.61;100.00;100260.78;5005272;28;20272;-67
2022/12/06 04:55:24;;;;;;;3.73;3.43;;;;;;;3.58;100.00;100265.91;5009575;28;20195;-67
2022/12/06 04:57:49;;;;;;;3.80;3.40;;;;;;;3.66;100.00;100264.03;5012643;28;20659;-66
2022/12/06 05:00:18;;;;;;;3.73;3.43;;;;;;;3.51;100.00;100270.31;5018231;28;20194;-66
2022/12/06 05:02:54;;;;;;;3.90;3.50;;;;;;;3.56;100.00;100270.22;5011797;28;20186;-66
2022/12/06 05:05:20;;;;;;;3.57;3.27;;;;;;;3.46;100.00;100272.13;5011125;28;20202;-66
2022/12/06 05:07:45;;;;;;;4.23;3.83;;;;;;;3.34;100.00;100267.31;5013131;28;20203;-66
2022/12/06 05:10:12;;;;;;;4.40;4.00;;;;;;;3.36;100.00;100273.19;5002375;28;20214;-66
2022/12/06 05:12:40;;;;;;;3.87;3.47;;;;;;;3.44;100.00;100271.31;5027274;28;20227;-66
2022/12/06 05:15:06;;;;;;;3.83;3.50;;;;;;;3.50;100.00;100268.66;5010654;28;20194;-67
2022/12/06 05:17:32;;;;;;;4.50;4.10;;;;;;;3.43;100.00;100272.19;5012175;28;20182;-66
2022/12/06 05:19:57;;;;;;;4.67;4.23;;;;;;;3.39;100.00;100271.41;5008353;28;20221;-66
2022/12/06 05:22:25;;;;;;;4.43;4.03;;;;;;;3.31;100.00;100268.22;5008667;28;20229;-66
2022/12/06 05:24:51;;;;;;;4.70;4.30;;;;;;;3.23;100.00;100270.09;5000111;28;20210;-66
2022/12/06 05:27:22;;;;;;;4.43;4.00;;;;;;;3.25;100.00;100272.59;5011060;28;20182;-66
2022/12/06 05:29:48;;;;;;;4.87;4.30;;;;;;;3.30;100.00;100271.63;5027214;28;20716;-67
2022/12/06 05:32:13;;;;;;;4.50;4.10;;;;;;;3.33;100.00;100263.94;5000983;28;20316;-66
2022/12/06 05:34:41;;;;;;;4.10;3.80;;;;;;;3.34;100.00;100263.06;5012054;28;20599;-66
2022/12/06 05:37:10;;;;;;;4.67;4.27;;;;;;;3.26;100.00;100259.84;5027301;28;20674;-66
2022/12/06 05:39:36;;;;;;;4.30;3.90;;;;;;;3.36;100.00;100266.41;5024532;28;20209;-66
2022/12/06 05:42:01;;;;;;;5.10;4.60;;;;;;;3.31;100.00;100269.91;5016394;28;20229;-66
2022/12/06 05:44:26;;;;;;;5.40;4.90;;;;;;;3.39;100.00;100266.34;5012585;28;20198;-66
2022/12/06 05:46:52;;;;;;;4.53;4.13;;;;;;;3.30;100.00;100270.78;5006929;28;20163;-66
2022/12/06 05:49:17;;;;;;;4.40;4.00;;;;;;;3.13;100.00;100273.72;5011003;28;20188;-66
2022/12/06 05:51:43;;;;;;;4.40;4.00;;;;;;;3.21;100.00;100274.34;5019899;28;20667;-66
2022/12/06 05:54:08;;;;;;;5.00;4.50;;;;;;;3.30;100.00;100279.25;5009980;28;20193;-67
2022/12/06 05:56:34;;;;;;;6.10;4.53;;;;;;;3.39;100.00;100271.41;5003037;28;20301;-66
2022/12/06 05:58:59;;;;;;;4.53;4.13;;;;;;;3.47;100.00;100275.50;5008888;28;20175;-67
2022/12/06 06:01:24;;;;;;;4.60;4.10;;;;;;;3.47;100.00;100272.97;5011852;28;20274;-66
2022/12/06 06:03:51;;;;;;;6.37;5.37;;;;;;;3.46;100.00;100272.13;4994433;28;20210;-66
2022/12/06 06:06:20;;;;;;;7.37;5.57;;;;;;;3.48;100.00;100265.28;5011607;28;20182;-67
2022/12/06 06:08:47;;;;;;;5.67;5.07;;;;;;;3.34;100.00;100270.69;5026807;28;20206;-67
2022/12/06 06:11:13;;;;;;;4.33;3.70;;;;;;;3.22;100.00;100269.25;5010010;28;20797;-66
2022/12/06 06:13:38;;;;;;;4.73;4.33;;;;;;;3.23;100.00;100267.56;5018861;28;20178;-67
2022/12/06 06:16:04;;;;;;;4.53;4.13;;;;;;;3.33;100.00;100270.72;5026927;28;20317;-67
2022/12/06 06:18:29;;;;;;;4.03;3.63;;;;;;;3.22;100.00;100265.88;5026634;28;20209;-67
2022/12/06 06:20:58;;;;;;;4.97;4.57;;;;;;;3.15;100.00;100272.81;5008263;28;20299;-67
2022/12/06 06:23:25;;;;;;;5.27;3.97;;;;;;;3.31;100.00;100265.69;5022621;28;20197;-67
2022/12/06 06:25:50;;;;;;;4.90;4.40;;;;;;;3.27;100.00;100275.94;5015862;28;20278;-67
2022/12/06 06:28:16;;;;;;;4.70;4.30;;;;;;;3.09;100.00;100272.94;5015312;28;20285;-66
2022/12/06 06:30:42;;;;;;;4.70;4.13;;;;;;;3.07;100.00;100277.19;5010513;28;20800;-66
2022/12/06 06:33:08;;;;;;;4.07;3.67;;;;;;;2.99;100.00;100274.81;5030540;28;20546;-66
2022/12/06 06:35:33;;;;;;;4.60;4.20;;;;;;;3.21;100.00;100271.81;5015510;28;20634;-66
2022/12/06 06:37:58;;;;;;;4.13;3.73;;;;;;;3.25;100.00;100278.53;5015050;28;20166;-66
2022/12/06 06:40:24;;;;;;;4.93;4.17;;;;;;;3.38;100.00;100274.00;5023489;28;20320;-66
2022/12/06 06:42:49;;;;;;;5.53;4.60;;;;;;;3.46;100.00;100272.13;5013868;28;20186;-66
2022/12/06 06:45:14;;;;;;;5.00;4.23;;;;;;;3.27;100.00;100274.22;5009667;28;20672;-66
2022/12/06 06:47:40;;;;;;;5.70;4.50;;;;;;;3.25;100.00;100280.22;5014590;28;20202;-66
2022/12/06 06:50:06;;;;;;;4.00;3.63;;;;;;;3.04;100.00;100283.19;5005676;28;20200;-66
2022/12/06 06:52:32;;;;;;;4.40;4.00;;;;;;;3.13;100.00;100289.78;5009781;28;20198;-66
2022/12/06 06:54:57;;;;;;;3.77;3.47;;;;;;;3.11;100.00;100291.50;5006582;28;20540;-66
2022/12/06 06:57:23;;;;;;;3.87;3.57;;;;;;;3.03;100.00;100286.59;5014709;28;20207;-66
2022/12/06 06:59:48;;;;;;;4.27;3.87;;;;;;;3.09;100.00;100294.94;5015111;28;20262;-66
2022/12/06 07:02:14;;;;;;;4.37;4.00;;;;;;;3.09;100.00;100284.78;5019768;28;20316;-66
2022/12/06 07:04:39;;;;;;;4.47;4.07;;;;;;;3.18;100.00;100290.50;5015145;28;20199;-66
2022/12/06 07:07:05;;;;;;;4.43;4.03;;;;;;;3.14;100.00;100294.00;5014405;28;20198;-67
2022/12/06 07:09:30;;;;;;;5.13;4.63;;;;;;;3.08;100.00;100294.13;5030831;28;20594;-66
2022/12/06 07:11:56;;;;;;;5.07;4.37;;;;;;;3.19;100.00;100294.75;5019017;28;20230;-66
2022/12/06 07:14:21;;;;;;;3.70;3.40;;;;;;;3.13;100.00;100292.31;5015603;28;20622;-66
2022/12/06 07:16:47;;;;;;;4.47;3.80;;;;;;;3.04;100.00;100288.25;5012875;28;20285;-65
2022/12/06 07:19:12;;;;;;;4.47;4.07;;;;;;;3.07;100.00;100285.66;5030296;28;20233;-66
2022/12/06 07:21:38;;;;;;;4.50;4.00;;;;;;;3.09;100.00;100283.09;5016976;28;20357;-66
2022/12/06 07:24:04;;;;;;;4.33;3.93;;;;;;;3.04;100.00;100289.97;5017836;28;20189;-66
2022/12/06 07:26:29;;;;;;;5.13;4.60;;;;;;;2.93;100.00;100285.09;5013301;28;20251;-66
2022/12/06 07:28:56;;;;;;;10.67;4.50;;;;;;;2.91;100.00;100289.38;5013960;28;20614;-66
2022/12/06 07:31:25;;;;;;;39.50;20.60;;;;;;;3.01;100.00;100280.69;5004475;28;20685;-66
2022/12/06 07:33:53;;;;;;;5.33;4.17;;;;;;;3.02;100.00;100289.16;5018738;28;20267;-66
2022/12/06 07:36:18;;;;;;;5.03;4.03;;;;;;;3.04;100.00;100293.34;5028788;28;20186;-66
2022/12/06 07:38:50;;;;;;;4.53;4.13;;;;;;;3.13;100.00;100296.59;5029039;28;20266;-66
2022/12/06 07:46:45;;;;;;;5.97;4.30;;;;;;;2.96;100.00;100295.19;5011821;28;20193;-66
2022/12/06 07:49:11;;;;;;;4.70;4.00;;;;;;;3.13;100.00;100294.88;5013735;28;20737;-66
2022/12/06 07:51:36;;;;;;;4.50;4.10;;;;;;;3.16;100.00;100292.28;5012600;28;20321;-66
2022/12/06 07:54:02;;;;;;;4.13;3.73;;;;;;;3.30;100.00;100291.13;5016673;28;20550;-66
2022/12/06 07:56:28;;;;;;;4.30;3.90;;;;;;;3.27;100.00;100294.56;5013055;28;20195;-66
2022/12/06 07:58:53;;;;;;;3.53;3.23;;;;;;;3.23;100.00;100288.72;5013575;28;20174;-67
2022/12/06 08:01:19;;;;;;;4.03;3.73;;;;;;;3.27;100.00;100292.03;4992935;28;20780;-68
2022/12/06 08:03:44;;;;;;;3.63;3.27;;;;;;;3.12;100.00;100300.00;5015142;28;20198;-67
2022/12/06 08:06:10;;;;;;;4.30;3.90;;;;;;;3.08;100.00;100296.66;5012688;28;20351;-67
2022/12/06 08:08:36;;;;;;;4.20;3.90;;;;;;;3.12;100.00;100287.28;5024502;28;20243;-67
2022/12/06 08:11:05;;;;;;;4.27;3.87;;;;;;;3.21;100.00;100295.56;5000347;28;20238;-67
2022/12/06 08:13:31;;;;;;;3.70;3.40;;;;;;;3.38;100.00;100296.88;5009389;28;20202;-66
2022/12/06 08:15:57;;;;;;;4.23;3.83;;;;;;;3.39;100.00;100296.84;5022062;28;20256;-67
2022/12/06 08:18:22;;;;;;;3.93;3.57;;;;;;;3.44;100.00;100289.13;5011784;28;20547;-66
2022/12/06 08:20:47;;;;;;;4.40;3.30;;;;;;;3.45;100.00;100283.19;5008204;28;20234;-66
2022/12/06 08:23:13;;;;;;;4.33;3.70;;;;;;;3.49;100.00;100289.03;5021997;28;20179;-67
2022/12/06 08:25:38;;;;;;;3.47;3.17;;;;;;;3.61;100.00;100288.75;5013358;28;20221;-67
2022/12/06 08:28:04;;;;;;;3.33;2.90;;;;;;;3.64;100.00;100285.31;5010540;28;20226;-66
2022/12/06 08:30:29;;;;;;;3.50;3.03;;;;;;;3.57;100.00;100286.31;4984462;28;20229;-67
2022/12/06 08:32:54;;;;;;;3.70;3.40;;;;;;;3.67;100.00;100288.63;5016057;28;20209;-67
2022/12/06 08:35:20;;;;;;;3.70;3.40;;;;;;;3.60;100.00;100291.31;5013280;28;20171;-67
2022/12/06 08:37:45;;;;;;;3.83;3.53;;;;;;;3.76;100.00;100284.16;5027471;28;21675;-67
2022/12/06 08:40:11;;;;;;;4.37;3.40;;;;;;;3.83;100.00;100289.09;5013856;28;20191;-66
2022/12/06 08:42:36;;;;;;;4.40;3.20;;;;;;;3.78;100.00;100293.44;5012045;28;20650;-67
2022/12/06 08:45:01;;;;;;;3.50;3.20;;;;;;;3.86;100.00;100291.56;5004181;28;20265;-67
2022/12/06 08:47:27;;;;;;;4.47;3.00;;;;;;;4.03;100.00;100296.25;5010545;28;20179;-66
2022/12/06 08:49:52;;;;;;;3.00;2.80;;;;;;;4.08;100.00;100288.50;5013251;28;20183;-66
2022/12/06 08:52:17;;;;;;;3.60;3.30;;;;;;;4.13;100.00;100291.78;5018190;28;20301;-68
2022/12/06 08:54:43;;;;;;;3.53;3.23;;;;;;;4.19;100.00;100288.22;5011804;28;20191;-67
2022/12/06 08:57:08;;;;;;;3.90;3.33;;;;;;;4.23;100.00;100287.28;5012116;28;20716;-67
2022/12/06 08:59:33;;;;;;;3.50;3.03;;;;;;;4.35;100.00;100286.97;5012958;28;20179;-67
2022/12/06 09:01:59;;;;;;;3.50;3.20;;;;;;;4.45;100.00;100284.19;5016888;28;20232;-67
2022/12/06 09:04:24;;;;;;;3.43;3.13;;;;;;;4.47;100.00;100285.81;5013467;28;20198;-67
2022/12/06 09:06:50;;;;;;;3.70;3.40;;;;;;;4.58;100.00;100293.19;5011527;28;20321;-66
2022/12/06 09:09:16;;;;;;;3.43;3.13;;;;;;;4.48;100.00;100291.75;5012598;28;20212;-67
2022/12/06 09:11:43;;;;;;;2.90;2.70;;;;;;;4.34;100.00;100297.19;5019836;28;20242;-67
2022/12/06 09:14:13;;;;;;;3.00;2.80;;;;;;;4.42;100.00;100297.84;5011361;28;20190;-67
2022/12/06 09:16:43;;;;;;;3.33;3.03;;;;;;;4.53;100.00;100300.13;5011906;28;20197;-67
2022/12/06 09:19:13;;;;;;;3.20;2.90;;;;;;;4.59;100.00;100299.09;5027515;28;20202;-66
2022/12/06 09:21:41;;;;;;;3.70;3.33;;;;;;;4.57;100.00;100306.78;5013918;28;20300;-66
2022/12/06 09:24:13;;;;;;;3.63;3.20;;;;;;;4.71;100.00;100300.50;5010555;28;20187;-66
2022/12/06 09:26:38;;;;;;;3.67;3.07;;;;;;;4.42;100.00;100299.56;5007012;28;20191;-66
2022/12/06 09:29:04;;;;;;;3.57;3.27;;;;;;;4.40;100.00;100299.56;5023465;28;20186;-66
2022/12/06 09:31:30;;;;;;;6.03;4.17;;;;;;;4.34;100.00;100299.72;5020316;28;20237;-66
2022/12/06 09:33:55;;;;;;;4.30;3.90;;;;;;;4.32;100.00;100302.31;5010699;28;20258;-66
2022/12/06 09:36:26;;;;;;;5.73;4.53;;;;;;;4.20;100.00;100303.50;5011854;28;20265;-65
2022/12/06 09:39:09;;;;;;;3.30;3.00;;;;;;;4.12;100.00;100312.16;5023518;28;20218;-65
2022/12/06 09:42:14;;;;;;;3.50;3.20;;;;;;;4.19;100.00;100304.34;5013941;28;20226;-65
2022/12/06 09:45:03;;;;;;;2.77;2.57;;;;;;;4.06;100.00;100305.53;5011466;28;20210;-65
2022/12/06 09:47:46;;;;;;;3.33;3.10;;;;;;;4.22;100.00;100311.09;5024659;28;20177;-67
2022/12/06 09:50:33;;;;;;;4.13;3.57;;;;;;;4.35;100.00;100312.44;5002587;28;20194;-66
2022/12/06 09:53:08;;;;;;;4.83;3.67;;;;;;;4.57;100.00;100309.34;5018905;28;20182;-65
2022/12/06 09:55:46;;;;;;;4.53;3.73;;;;;;;4.80;100.00;100315.53;5010410;28;20194;-67
2022/12/06 09:58:27;;;;;;;3.27;3.07;;;;;;;4.56;100.00;100312.75;5011283;28;20236;-66
2022/12/06 10:01:11;;;;;;;3.00;2.80;;;;;;;4.74;100.00;100314.00;5019521;28;20296;-66
2022/12/06 10:03:55;;;;;;;2.87;2.60;;;;;;;5.07;100.00;100308.81;5010483;28;20236;-66
2022/12/06 10:06:23;;;;;;;2.87;2.57;;;;;;;5.04;100.00;100305.56;5010118;28;20214;-66
2022/12/06 10:09:08;;;;;;;3.00;2.60;;;;;;;5.10;100.00;100310.47;5026446;28;20290;-66
2022/12/06 10:11:56;;;;;;;2.97;2.67;;;;;;;5.14;100.00;100304.41;5012342;28;20325;-67
2022/12/06 10:14:37;;;;;;;2.30;2.10;;;;;;;5.48;100.00;100306.78;5026991;28;20595;-65
2022/12/06 10:17:27;;;;;;;3.83;3.40;;;;;;;5.36;100.00;100308.84;5009496;28;20221;-67
2022/12/06 10:19:52;;;;;;;3.03;2.73;;;;;;;5.53;100.00;100305.81;5026602;28;20178;-66
2022/12/06 10:22:42;;;;;;;4.37;3.97;;;;;;;5.55;100.00;100311.72;5016679;28;20341;-66
2022/12/06 10:25:36;;;;;;;2.80;2.60;;;;;;;5.53;100.00;100301.53;5011112;28;20568;-66
2022/12/06 10:28:12;;;;;;;2.60;2.40;;;;;;;5.56;100.00;100298.09;5004905;28;20194;-67
2022/12/06 10:31:03;;;;;;;3.97;2.87;;;;;;;5.75;100.00;100295.78;5005751;28;20334;-67
2022/12/06 10:33:49;;;;;;;4.87;2.23;;;;;;;5.50;100.00;100305.00;5019373;28;20186;-67
2022/12/06 10:36:25;;;;;;;2.83;2.60;;;;;;;5.64;100.00;100299.50;5021007;28;20179;-66
2022/12/06 10:38:59;;;;;;;3.83;2.30;;;;;;;5.63;100.00;100299.53;5011339;28;20177;-65
2022/12/06 10:41:31;;;;;;;2.93;2.60;;;;;;;5.61;100.00;100303.88;5009665;28;20762;-66
2022/12/06 10:44:06;;;;;;;2.30;2.10;;;;;;;5.94;100.00;100308.78;5015146;28;20203;-67
2022/12/06 10:47:03;;;;;;;3.27;2.63;;;;;;;5.94;100.00;100303.69;5015120;28;20199;-66
2022/12/06 10:49:56;;;;;;;2.53;2.33;;;;;;;5.84;100.00;100292.91;5006572;28;20186;-66
2022/12/06 10:52:27;;;;;;;2.40;2.00;;;;;;;6.00;100.00;100300.13;5009454;28;20332;-66
2022/12/06 10:55:17;;;;;;;2.70;2.50;;;;;;;6.00;100.00;100297.59;5010062;28;20201;-66
2022/12/06 10:57:42;;;;;;;3.20;2.90;;;;;;;5.84;100.00;100295.47;4998335;28;20189;-66
2022/12/06 11:00:19;;;;;;;2.13;2.00;;;;;;;5.97;100.00;100288.28;5000976;28;20176;-66
2022/12/06 11:02:56;;;;;;;2.40;2.20;;;;;;;5.95;100.00;100290.03;5026209;28;20234;-66
2022/12/06 11:05:33;;;;;;;3.50;2.43;;;;;;;5.97;100.00;100285.72;5011088;28;20201;-66
2022/12/06 11:08:11;;;;;;;5.80;2.30;;;;;;;6.44;100.00;100283.31;5025714;28;20183;-67
2022/12/06 11:10:38;;;;;;;3.93;2.43;;;;;;;6.34;100.00;100286.25;5007469;28;20791;-67
2022/12/06 11:13:34;;;;;;;2.47;2.27;;;;;;;6.21;100.00;100286.66;5029850;28;20189;-67
2022/12/06 11:16:13;;;;;;;2.73;2.53;;;;;;;6.33;100.00;100287.16;5005585;28;20267;-67
2022/12/06 11:18:39;;;;;;;3.30;3.00;;;;;;;5.89;100.00;100288.53;5013101;28;20174;-67
2022/12/06 11:21:23;;;;;;;2.93;2.73;;;;;;;5.88;100.00;100289.41;5022485;28;20320;-67
2022/12/06 11:24:04;;;;;;;2.90;2.70;;;;;;;5.87;100.00;100294.56;5018210;28;20653;-66
2022/12/06 11:26:40;;;;;;;2.30;2.10;;;;;;;5.79;100.00;100282.88;5012571;28;20181;-66
2022/12/06 11:29:10;;;;;;;2.20;2.00;;;;;;;5.72;100.00;100285.66;5029643;28;20672;-67
2022/12/06 11:31:45;;;;;;;2.97;2.77;;;;;;;5.76;100.00;100284.69;5015537;28;20226;-67
2022/12/06 11:34:30;;;;;;;3.37;2.80;;;;;;;5.81;100.00;100283.66;5011919;28;20190;-67
2022/12/06 11:36:56;;;;;;;2.70;2.50;;;;;;;6.07;100.00;100278.63;5028612;28;20188;-68
2022/12/06 11:39:22;;;;;;;3.97;2.83;;;;;;;6.18;100.00;100279.09;5014407;28;20590;-67
2022/12/06 11:41:55;;;;;;;3.83;2.30;;;;;;;6.28;100.00;100279.63;5002364;28;20246;-67
2022/12/06 11:44:26;;;;;;;2.43;2.20;;;;;;;6.39;100.00;100279.28;5028114;28;20182;-67
2022/12/06 11:46:58;;;;;;;3.60;2.43;;;;;;;6.44;100.00;100277.41;5012376;28;20214;-66
2022/12/06 11:49:30;;;;;;;3.07;2.17;;;;;;;6.47;100.00;100274.72;5013803;28;20233;-67
2022/12/06 11:51:59;;;;;;;2.60;2.40;;;;;;;6.52;100.00;100275.38;5018217;28;20236;-67
2022/12/06 11:54:30;;;;;;;4.23;2.20;;;;;;;6.40;100.00;100278.38;5004262;28;20229;-67
2022/12/06 11:57:00;;;;;;;3.40;2.67;;;;;;;6.55;100.00;100275.28;5007295;28;20617;-66
2022/12/06 11:59:30;;;;;;;3.50;2.53;;;;;;;6.46;100.00;100273.03;5014000;28;20628;-67
2022/12/06 12:02:02;;;;;;;2.30;2.00;;;;;;;6.37;100.00;100278.47;4991438;28;20629;-66